Time;durP1;ratioP1;P1;durP2;ratioP2;P2;SDS_P1;SDS_P2;PMS_P1;PMS_P2;Temp;Humidity;BMP_temperature;BMP_pressure;BME280_temperature;BME280_humidity;BME280_pressure;Samples;Min_cycle;Max_cycle;Signal;HPM_P1;HPM_P2
2021/06/17 00:01:41;;;;;;;7.72;3.30;;;25.20;69.10;;;;;;5074201;28;19912;-65
2021/06/17 00:04:07;;;;;;;4.18;3.17;;;25.20;69.10;;;;;;5074097;28;20024;-66
2021/06/17 00:06:32;;;;;;;;;;;25.10;68.80;;;;;;5073062;28;20025;-65
2021/06/17 00:08:58;;;;;;;6.65;3.42;;;25.10;69.10;;;;;;5072662;28;20008;-65
2021/06/17 00:11:23;;;;;;;;;;;25.10;68.50;;;;;;5074431;28;20024;-65
2021/06/17 00:13:51;;;;;;;3.10;2.67;;;25.10;68.40;;;;;;5074423;28;20277;-65
2021/06/17 00:16:17;;;;;;;5.18;2.65;;;25.00;68.50;;;;;;5073926;28;20020;-66
2021/06/17 00:18:43;;;;;;;3.72;2.55;;;25.00;68.50;;;;;;5074035;28;20370;-66
2021/06/17 00:21:09;;;;;;;;;;;25.00;69.10;;;;;;5072887;28;20040;-66
2021/06/17 00:23:35;;;;;;;5.13;2.65;;;25.00;68.50;;;;;;5072791;28;19913;-66
2021/06/17 00:26:03;;;;;;;3.30;2.60;;;25.00;68.50;;;;;;5073853;28;20028;-66
2021/06/17 00:28:29;;;;;;;6.18;2.90;;;24.90;68.30;;;;;;5073539;28;20051;-66
2021/06/17 00:30:54;;;;;;;;;;;25.00;68.40;;;;;;5073994;28;20024;-66
2021/06/17 00:33:20;;;;;;;4.03;2.65;;;24.90;68.60;;;;;;5073616;28;20254;-66
2021/06/17 00:35:46;;;;;;;;;;;24.80;68.70;;;;;;5074142;28;20473;-66
2021/06/17 00:38:12;;;;;;;4.03;2.72;;;24.80;69.20;;;;;;5073590;28;20289;-66
2021/06/17 00:40:39;;;;;;;6.50;2.72;;;24.80;68.50;;;;;;5073526;28;20028;-66
2021/06/17 00:43:05;;;;;;;3.20;2.50;;;24.80;68.70;;;;;;5073305;28;20024;-66
2021/06/17 00:45:41;;;;;;;4.85;2.95;;;24.70;68.60;;;;;;5073432;28;20021;-66
2021/06/17 00:48:07;;;;;;;6.65;3.60;;;24.70;68.60;;;;;;5073298;28;20175;-66
2021/06/17 00:50:49;;;;;;;4.70;2.88;;;24.70;68.60;;;;;;5073423;28;20070;-66
2021/06/17 00:53:17;;;;;;;3.47;2.47;;;24.70;68.70;;;;;;5073275;28;20028;-66
2021/06/17 00:55:45;;;;;;;4.78;2.90;;;24.60;68.60;;;;;;5073123;28;20029;-66
2021/06/17 00:58:11;;;;;;;5.72;2.88;;;24.60;68.90;;;;;;5073248;28;20021;-66
2021/06/17 01:00:38;;;;;;;3.78;2.80;;;24.60;68.80;;;;;;5072991;28;20393;-66
2021/06/17 01:03:05;;;;;;;3.22;2.60;;;24.60;68.80;;;;;;5072998;28;20032;-66
2021/06/17 01:05:31;;;;;;;3.90;2.90;;;24.50;68.60;;;;;;5073142;28;20036;-66
2021/06/17 01:08:03;;;;;;;6.03;3.00;;;24.50;68.60;;;;;;5073118;28;20024;-66
2021/06/17 01:11:03;;;;;;;3.13;2.47;;;24.50;68.90;;;;;;5071654;28;20059;-66
2021/06/17 01:13:41;;;;;;;3.35;2.47;;;24.50;69.00;;;;;;5073840;28;20338;-66
2021/06/17 01:16:21;;;;;;;6.53;2.92;;;24.40;69.20;;;;;;5071836;28;20031;-66
2021/06/17 01:18:53;;;;;;;4.65;2.90;;;24.40;69.40;;;;;;5072955;28;20021;-65
2021/06/17 01:21:24;;;;;;;4.35;2.60;;;24.30;69.70;;;;;;5073069;28;20021;-66
2021/06/17 01:24:11;;;;;;;6.72;3.00;;;24.30;69.60;;;;;;5072963;28;20028;-66
2021/06/17 01:26:36;;;;;;;3.67;2.70;;;24.30;70.00;;;;;;5073091;28;20085;-66
2021/06/17 01:29:02;;;;;;;;;;;24.20;70.10;;;;;;5072016;28;20020;-66
2021/06/17 01:31:32;;;;;;;2.92;2.45;;;24.20;70.30;;;;;;5073072;28;19904;-66
2021/06/17 01:33:59;;;;;;;5.68;2.70;;;24.20;70.30;;;;;;5072958;28;20035;-66
2021/06/17 01:36:34;;;;;;;2.78;2.53;;;24.20;70.30;;;;;;5072646;28;20135;-66
2021/06/17 01:39:04;;;;;;;3.85;2.70;;;24.10;70.70;;;;;;5073079;28;20020;-66
2021/06/17 01:41:36;;;;;;;3.95;3.03;;;24.10;70.90;;;;;;5072910;28;20024;-66
2021/06/17 01:44:03;;;;;;;4.00;2.80;;;24.10;71.50;;;;;;5072979;28;20036;-66
2021/06/17 01:46:31;;;;;;;3.25;2.67;;;24.00;71.80;;;;;;5072847;28;20025;-62
2021/06/17 01:48:58;;;;;;;5.00;2.70;;;24.00;71.80;;;;;;5072760;28;20169;-62
2021/06/17 01:51:26;;;;;;;3.65;2.78;;;23.90;72.20;;;;;;5072617;28;20484;-60
2021/06/17 01:53:53;;;;;;;4.30;2.92;;;23.80;72.30;;;;;;5073047;28;20052;-62
2021/06/17 01:56:21;;;;;;;5.82;2.90;;;23.80;72.20;;;;;;5072652;28;20487;-62
2021/06/17 01:58:51;;;;;;;6.18;2.85;;;23.80;72.20;;;;;;5072683;28;20036;-62
2021/06/17 02:01:18;;;;;;;4.05;3.10;;;23.80;72.30;;;;;;5072872;28;20104;-62
2021/06/17 02:03:45;;;;;;;7.20;3.20;;;23.80;72.60;;;;;;5072405;28;20112;-62
2021/06/17 02:06:16;;;;;;;4.15;2.78;;;23.70;73.30;;;;;;5072650;28;20531;-62
2021/06/17 02:08:45;;;;;;;4.38;2.95;;;23.70;73.90;;;;;;5072569;28;20466;-60
2021/06/17 02:11:11;;;;;;;3.92;2.85;;;23.70;74.50;;;;;;5072576;28;20025;-60
2021/06/17 02:13:38;;;;;;;3.53;2.92;;;23.60;74.70;;;;;;5072879;28;20525;-61
2021/06/17 02:16:04;;;;;;;;;;;23.60;74.60;;;;;;5071737;28;20029;-61
2021/06/17 02:18:31;;;;;;;3.80;2.80;;;23.50;74.30;;;;;;5072616;28;20284;-60
2021/06/17 02:20:57;;;;;;;4.05;2.70;;;23.50;75.00;;;;;;5072886;28;20021;-62
2021/06/17 02:23:23;;;;;;;4.88;3.42;;;23.50;74.80;;;;;;5073180;28;20047;-61
2021/06/17 02:25:52;;;;;;;3.63;2.80;;;23.40;75.20;;;;;;5073118;28;20036;-61
2021/06/17 02:28:20;;;;;;;4.93;3.17;;;23.40;75.80;;;;;;5072947;28;20024;-61
2021/06/17 02:30:49;;;;;;;4.50;3.10;;;23.30;75.90;;;;;;5072875;28;20051;-60
2021/06/17 02:33:17;;;;;;;4.53;3.25;;;23.30;76.10;;;;;;5072928;28;20377;-61
2021/06/17 02:35:46;;;;;;;3.85;3.10;;;23.30;76.20;;;;;;5072753;28;20028;-61
2021/06/17 02:38:15;;;;;;;4.20;3.05;;;23.20;76.10;;;;;;5074678;28;20025;-62
2021/06/17 02:40:44;;;;;;;4.28;2.83;;;23.20;76.20;;;;;;5074455;28;20107;-62
2021/06/17 02:43:14;;;;;;;4.43;3.10;;;23.10;76.50;;;;;;5072773;28;20029;-61
2021/06/17 02:45:42;;;;;;;3.90;2.78;;;23.10;76.80;;;;;;5074764;28;20103;-62
2021/06/17 02:48:09;;;;;;;5.93;3.22;;;23.10;77.00;;;;;;5076212;28;20017;-61
2021/06/17 02:50:34;;;;;;;4.38;2.90;;;23.00;77.00;;;;;;5077004;28;20413;-61
2021/06/17 02:53:00;;;;;;;3.47;2.95;;;23.00;77.10;;;;;;5077742;28;20039;-61
2021/06/17 02:55:26;;;;;;;3.70;2.88;;;22.90;77.20;;;;;;5077758;28;20115;-62
2021/06/17 02:58:07;;;;;;;;;;;22.90;77.00;;;;;;5078968;28;20028;-60
2021/06/17 03:00:36;;;;;;;4.60;3.10;;;22.90;77.30;;;;;;5077041;28;19909;-60
2021/06/17 03:03:03;;;;;;;6.55;2.88;;;22.90;77.00;;;;;;5075988;28;20385;-62
2021/06/17 03:05:49;;;;;;;4.35;3.30;;;22.80;77.10;;;;;;5075987;28;20116;-62
2021/06/17 03:08:21;;;;;;;4.55;3.15;;;22.80;77.20;;;;;;5076207;28;20467;-61
2021/06/17 03:10:50;;;;;;;6.22;3.35;;;22.70;77.30;;;;;;5075417;28;20020;-61
2021/06/17 03:13:21;;;;;;;4.10;3.08;;;22.70;77.40;;;;;;5075590;28;20385;-61
2021/06/17 03:15:47;;;;;;;5.15;3.30;;;22.70;77.70;;;;;;5075959;28;20493;-61
2021/06/17 03:18:15;;;;;;;4.47;3.38;;;22.70;77.80;;;;;;5075667;28;20032;-61
2021/06/17 03:20:43;;;;;;;4.25;2.75;;;22.60;77.90;;;;;;5075378;28;20063;-60
2021/06/17 03:23:14;;;;;;;3.55;3.05;;;22.50;78.00;;;;;;5075107;28;20037;-61
2021/06/17 03:25:42;;;;;;;4.22;3.10;;;22.60;78.00;;;;;;5075350;28;20539;-60
2021/06/17 03:28:12;;;;;;;3.60;3.25;;;22.50;78.30;;;;;;5075264;28;20039;-60
2021/06/17 03:30:41;;;;;;;5.55;3.67;;;22.50;78.30;;;;;;5075190;28;20101;-61
2021/06/17 03:33:07;;;;;;;3.63;2.88;;;22.50;78.40;;;;;;5075120;28;20053;-61
2021/06/17 03:35:34;;;;;;;6.85;3.30;;;22.50;78.80;;;;;;5075280;28;20025;-61
2021/06/17 03:38:02;;;;;;;5.05;3.08;;;22.40;78.70;;;;;;5074822;28;20027;-61
2021/06/17 03:40:28;;;;;;;5.53;3.08;;;22.40;79.00;;;;;;5074797;28;20021;-61
2021/06/17 03:42:56;;;;;;;3.78;3.25;;;22.40;79.30;;;;;;5075000;28;20103;-61
2021/06/17 03:45:23;;;;;;;5.28;3.20;;;22.40;79.50;;;;;;5074748;28;20428;-61
2021/06/17 03:47:51;;;;;;;7.03;3.80;;;22.40;79.90;;;;;;5074780;28;20020;-62
2021/06/17 03:50:20;;;;;;;7.78;4.18;;;22.40;80.20;;;;;;5075273;28;20017;-62
2021/06/17 03:52:46;;;;;;;3.42;3.13;;;22.40;80.60;;;;;;5074613;28;20469;-62
2021/06/17 03:55:16;;;;;;;5.90;3.65;;;22.40;80.90;;;;;;5074856;28;20033;-62
2021/06/17 03:57:44;;;;;;;7.13;3.80;;;22.40;81.30;;;;;;5074735;28;20378;-62
2021/06/17 04:00:11;;;;;;;5.68;3.53;;;22.30;81.40;;;;;;5074798;28;20021;-62
2021/06/17 04:02:38;;;;;;;5.15;4.32;;;22.40;81.50;;;;;;5075017;28;20044;-62
2021/06/17 04:05:06;;;;;;;5.22;3.38;;;22.40;81.50;;;;;;5074829;28;20082;-62
2021/06/17 04:07:33;;;;;;;6.03;3.38;;;22.40;81.50;;;;;;5074316;28;20017;-64
2021/06/17 04:10:00;;;;;;;6.03;3.35;;;22.30;81.60;;;;;;5074984;28;20029;-62
2021/06/17 04:12:29;;;;;;;5.25;3.72;;;22.30;81.80;;;;;;5074244;28;20473;-63
2021/06/17 04:14:58;;;;;;;11.23;4.50;;;22.40;83.50;;;;;;5074224;28;20032;-62
2021/06/17 04:17:31;;;;;;;10.40;4.90;;;22.30;84.90;;;;;;5074630;28;20465;-62
2021/06/17 04:20:01;;;;;;;8.35;5.10;;;22.30;86.60;;;;;;5074577;28;20103;-62
2021/06/17 04:22:29;;;;;;;10.18;7.18;;;22.30;90.00;;;;;;5073956;28;20036;-61
2021/06/17 04:24:59;;;;;;;7.97;5.68;;;22.30;90.50;;;;;;5073933;28;20025;-62
2021/06/17 04:27:26;;;;;;;12.68;6.00;;;22.20;91.00;;;;;;5074688;28;20202;-62
2021/06/17 04:29:53;;;;;;;10.18;5.70;;;22.20;91.70;;;;;;5073974;28;20096;-62
2021/06/17 04:32:19;;;;;;;10.25;5.68;;;22.10;92.30;;;;;;5074158;28;20028;-63
2021/06/17 04:34:48;;;;;;;10.52;5.90;;;22.10;92.90;;;;;;5074016;28;20393;-61
2021/06/17 04:37:17;;;;;;;10.27;5.72;;;22.10;93.30;;;;;;5073739;28;20493;-60
2021/06/17 04:39:43;;;;;;;10.13;6.00;;;22.10;93.80;;;;;;5073808;28;20396;-62
2021/06/17 04:42:10;;;;;;;9.48;5.70;;;22.10;94.20;;;;;;5072429;28;20020;-62
2021/06/17 04:44:43;;;;;;;9.85;6.05;;;22.00;94.80;;;;;;5073561;28;20033;-60
2021/06/17 04:47:10;;;;;;;9.20;6.35;;;22.00;95.20;;;;;;5072224;28;20020;-59
2021/06/17 04:49:37;;;;;;;7.72;6.00;;;22.10;95.50;;;;;;5073351;28;20021;-58
2021/06/17 04:52:04;;;;;;;9.35;5.97;;;22.20;95.60;;;;;;5073297;28;20482;-59
2021/06/17 04:54:30;;;;;;;7.80;6.32;;;22.20;95.70;;;;;;5073288;28;20029;-60
2021/06/17 04:56:56;;;;;;;11.07;6.00;;;22.20;95.90;;;;;;5073487;28;20166;-60
2021/06/17 04:59:21;;;;;;;7.55;6.05;;;22.30;96.00;;;;;;5073283;28;20028;-60
2021/06/17 05:01:47;;;;;;;;;;;22.40;95.80;;;;;;5074153;28;20420;-60
2021/06/17 05:04:15;;;;;;;7.60;5.78;;;22.50;95.80;;;;;;5073309;28;19915;-60
2021/06/17 05:06:51;;;;;;;10.45;6.03;;;22.60;95.80;;;;;;5073451;28;20385;-61
2021/06/17 05:12:01;;;;;;;11.60;5.57;;;22.70;95.60;;;;;;5073007;28;20034;-60
2021/06/17 05:14:27;;;;;;;10.52;5.90;;;22.80;95.30;;;;;;5073533;28;20025;-60
2021/06/17 05:16:52;;;;;;;;;;;22.90;94.80;;;;;;5073474;28;20059;-60
2021/06/17 05:19:18;;;;;;;8.50;5.72;;;22.90;94.80;;;;;;5072967;28;19904;-55
2021/06/17 05:21:43;;;;;;;;;;;23.10;94.70;;;;;;5073626;28;20054;-60
2021/06/17 05:24:10;;;;;;;8.07;5.47;;;23.10;94.00;;;;;;5071724;28;19912;-59
2021/06/17 05:26:36;;;;;;;10.07;5.80;;;23.20;93.90;;;;;;5073503;28;20074;-60
2021/06/17 05:29:03;;;;;;;8.80;5.82;;;23.20;93.80;;;;;;5071731;28;20131;-59
2021/06/17 05:31:29;;;;;;;14.73;6.50;;;23.20;94.10;;;;;;5072997;28;20063;-60
2021/06/17 05:33:55;;;;;;;7.70;5.40;;;23.20;94.20;;;;;;5073487;28;20059;-60
2021/06/17 05:36:21;;;;;;;8.27;5.43;;;23.30;94.30;;;;;;5094361;22;20024;-65
2021/06/17 05:38:48;;;;;;;8.27;4.95;;;23.30;94.20;;;;;;5053874;28;20096;-65
2021/06/17 05:41:14;;;;;;;7.45;5.10;;;23.30;94.10;;;;;;5053321;28;20019;-65
2021/06/17 05:43:40;;;;;;;13.20;5.40;;;23.40;94.10;;;;;;5053278;28;20393;-65
2021/06/17 05:46:06;;;;;;;7.78;5.00;;;23.40;94.10;;;;;;5051612;28;20024;-65
2021/06/17 05:48:32;;;;;;;;;;;23.50;94.00;;;;;;5053350;28;20032;-65
2021/06/17 05:50:58;;;;;;;11.20;5.30;;;23.60;93.90;;;;;;5052868;28;20004;-65
2021/06/17 05:53:24;;;;;;;7.38;5.03;;;23.60;93.70;;;;;;5053545;28;20027;-65
2021/06/17 05:55:50;;;;;;;;;;;23.70;93.30;;;;;;5053182;28;20032;-66
2021/06/17 05:58:15;;;;;;;5.93;4.50;;;23.80;92.90;;;;;;5053024;28;19976;-67
2021/06/17 06:00:41;;;;;;;;;;;23.80;92.90;;;;;;5053551;28;20478;-67
2021/06/17 06:03:07;;;;;;;8.88;4.63;;;23.90;93.30;;;;;;5052830;28;19927;-66
2021/06/17 06:05:32;;;;;;;;;;;23.90;92.70;;;;;;5053811;28;20026;-67
2021/06/17 06:08:00;;;;;;;8.23;4.35;;;24.10;91.10;;;;;;5052817;28;20372;-66
2021/06/17 06:10:26;;;;;;;6.80;4.57;;;24.10;91.00;;;;;;5051745;28;20022;-69
2021/06/17 06:12:52;;;;;;;8.68;4.53;;;24.10;90.20;;;;;;5052964;28;20024;-69
2021/06/17 06:15:18;;;;;;;;;;;24.10;90.40;;;;;;5053342;28;20025;-69
2021/06/17 06:17:43;;;;;;;6.72;4.55;;;24.20;89.20;;;;;;5052882;28;19904;-68
2021/06/17 06:20:09;;;;;;;;;;;24.20;89.00;;;;;;5053242;28;20028;-68
2021/06/17 06:22:36;;;;;;;7.13;4.03;;;24.30;88.10;;;;;;5054436;28;19944;-66
2021/06/17 06:25:02;;;;;;;6.40;4.30;;;24.40;88.00;;;;;;5056552;28;20473;-65
2021/06/17 06:27:28;;;;;;;9.43;6.07;;;24.50;87.50;;;;;;5055054;28;20051;-66
2021/06/17 06:29:56;;;;;;;;;;;24.60;87.50;;;;;;5057181;28;20418;-66
2021/06/17 06:32:21;;;;;;;7.65;4.70;;;24.60;87.80;;;;;;5056802;28;20328;-64
2021/06/17 06:34:47;;;;;;;;;;;24.70;87.20;;;;;;5056588;28;20056;-64
2021/06/17 06:37:13;;;;;;;5.13;4.60;;;24.80;86.50;;;;;;5056163;28;19912;-64
2021/06/17 06:39:38;;;;;;;;;;;24.90;86.40;;;;;;5057138;28;20029;-66
2021/06/17 06:42:05;;;;;;;7.03;4.45;;;24.90;86.00;;;;;;5056093;28;20413;-65
2021/06/17 06:44:30;;;;;;;7.28;4.38;;;25.00;85.20;;;;;;5054763;28;20033;-66
2021/06/17 06:46:56;;;;;;;;;;;25.10;85.50;;;;;;5057308;28;20020;-65
2021/06/17 06:49:22;;;;;;;14.60;9.05;;;25.10;85.30;;;;;;5056598;28;19905;-65
2021/06/17 06:51:47;;;;;;;;;;;25.10;86.00;;;;;;5056692;28;20033;-65
2021/06/17 06:54:18;;;;;;;8.23;6.50;;;25.20;86.70;;;;;;5056622;28;19911;-65
2021/06/17 06:56:44;;;;;;;6.47;4.93;;;25.20;87.10;;;;;;5056046;28;20108;-66
2021/06/17 06:59:09;;;;;;;8.52;4.90;;;25.40;86.30;;;;;;5057608;28;20508;-65
2021/06/17 07:01:37;;;;;;;;;;;25.40;86.10;;;;;;5057593;28;20029;-65
2021/06/17 07:04:03;;;;;;;8.07;4.95;;;25.50;86.50;;;;;;5056725;28;19909;-65
2021/06/17 07:06:29;;;;;;;7.60;5.05;;;25.60;87.00;;;;;;5055722;28;20063;-66
2021/06/17 07:08:54;;;;;;;;;;;25.60;87.00;;;;;;5058330;28;20358;-65
2021/06/17 07:11:20;;;;;;;8.95;5.47;;;25.70;87.20;;;;;;5057271;28;19905;-65
2021/06/17 07:13:45;;;;;;;;;;;25.70;87.90;;;;;;5057169;28;20389;-62
2021/06/17 07:16:11;;;;;;;8.75;4.97;;;25.70;88.40;;;;;;5056292;28;19904;-64
2021/06/17 07:18:36;;;;;;;;;;;25.80;88.60;;;;;;5058317;28;20025;-65
2021/06/17 07:21:02;;;;;;;6.18;4.85;;;25.90;88.90;;;;;;5057060;28;19909;-65
2021/06/17 07:23:30;;;;;;;6.82;5.43;;;25.90;89.10;;;;;;5054861;28;20379;-65
2021/06/17 07:25:56;;;;;;;6.10;4.95;;;26.00;88.70;;;;;;5055463;28;20014;-64
2021/06/17 07:28:22;;;;;;;7.55;4.85;;;26.00;88.60;;;;;;5055351;28;20048;-63
2021/06/17 07:30:48;;;;;;;;;;;26.10;87.70;;;;;;5054685;28;20123;-63
2021/06/17 07:33:13;;;;;;;9.23;4.72;;;26.30;87.20;;;;;;5054916;28;20336;-65
2021/06/17 07:35:39;;;;;;;7.05;4.57;;;26.40;86.90;;;;;;5055240;28;20043;-64
2021/06/17 07:38:05;;;;;;;8.35;4.70;;;26.50;87.30;;;;;;5054970;28;20033;-62
2021/06/17 07:40:31;;;;;;;7.00;4.70;;;26.50;85.50;;;;;;5055191;28;20009;-63
2021/06/17 07:42:57;;;;;;;9.07;4.95;;;26.70;85.70;;;;;;5055126;28;20078;-61
2021/06/17 07:45:26;;;;;;;9.23;4.72;;;27.30;84.60;;;;;;5055310;28;20104;-65
2021/06/17 07:47:51;;;;;;;8.38;4.47;;;28.70;81.80;;;;;;5054886;28;20027;-65
2021/06/17 07:50:17;;;;;;;6.40;4.40;;;30.60;76.80;;;;;;5055225;28;20021;-63
2021/06/17 07:52:43;;;;;;;4.20;3.80;;;31.50;73.40;;;;;;5053772;28;20029;-66
2021/06/17 07:55:09;;;;;;;5.43;4.10;;;32.10;71.40;;;;;;5055240;28;20469;-65
2021/06/17 07:57:35;;;;;;;6.68;4.30;;;32.80;70.40;;;;;;5053605;28;20049;-62
2021/06/17 08:00:00;;;;;;;6.30;4.18;;;32.90;69.50;;;;;;5054724;28;20427;-62
2021/06/17 08:02:26;;;;;;;5.72;4.15;;;32.80;69.20;;;;;;5053407;28;20036;-62
2021/06/17 08:04:52;;;;;;;7.35;4.07;;;32.60;69.00;;;;;;5055524;28;20021;-65
2021/06/17 08:07:18;;;;;;;8.13;3.97;;;33.10;66.70;;;;;;5054835;28;20021;-64
2021/06/17 08:09:44;;;;;;;8.50;3.70;;;33.80;65.10;;;;;;5053311;28;20029;-64
2021/06/17 08:12:10;;;;;;;6.82;4.68;;;35.00;63.20;;;;;;5055109;28;20200;-64
2021/06/17 08:14:35;;;;;;;5.00;4.15;;;36.20;61.20;;;;;;5052957;28;20462;-66
2021/06/17 08:17:01;;;;;;;6.53;4.25;;;37.40;58.60;;;;;;5053382;28;20035;-64
2021/06/17 08:19:31;;;;;;;8.13;4.22;;;38.00;56.60;;;;;;5054429;28;20397;-64
2021/06/17 08:21:58;;;;;;;7.05;5.30;;;38.50;55.00;;;;;;5053160;28;20025;-64
2021/06/17 08:24:25;;;;;;;8.35;4.13;;;39.00;53.80;;;;;;5053914;28;20350;-64
2021/06/17 08:26:50;;;;;;;6.53;3.90;;;39.20;52.90;;;;;;5053980;28;20068;-64
2021/06/17 08:29:16;;;;;;;8.88;3.65;;;38.60;53.10;;;;;;5053802;28;20048;-64
2021/06/17 08:31:43;;;;;;;5.70;4.38;;;38.80;53.10;;;;;;5054149;28;20483;-65
2021/06/17 08:34:12;;;;;;;5.28;3.55;;;39.70;52.70;;;;;;5052820;28;20024;-66
2021/06/17 08:36:38;;;;;;;6.88;3.60;;;40.50;51.30;;;;;;5054162;28;20025;-66
2021/06/17 08:39:04;;;;;;;4.55;3.25;;;40.90;50.00;;;;;;5054300;28;20029;-65
2021/06/17 08:41:31;;;;;;;6.03;3.70;;;41.20;48.80;;;;;;5052968;28;20032;-66
2021/06/17 08:43:57;;;;;;;7.82;3.60;;;41.40;47.90;;;;;;5052520;28;20056;-66
2021/06/17 08:46:23;;;;;;;5.38;3.30;;;41.50;47.70;;;;;;5053444;28;20017;-65
2021/06/17 08:48:49;;;;;;;10.02;5.00;;;41.80;47.70;;;;;;5053979;28;20104;-67
2021/06/17 08:51:17;;;;;;;4.13;3.63;;;42.00;47.30;;;;;;5052522;28;20482;-66
2021/06/17 08:53:42;;;;;;;7.47;3.63;;;42.30;47.00;;;;;;5052871;28;20075;-64
2021/06/17 08:56:08;;;;;;;7.32;3.67;;;42.60;46.50;;;;;;5053692;28;20029;-65
2021/06/17 08:58:34;;;;;;;4.38;3.88;;;42.70;46.40;;;;;;5054183;28;20527;-68
2021/06/17 09:01:08;;;;;;;7.72;4.70;;;42.80;46.40;;;;;;5054182;28;20025;-67
2021/06/17 09:03:38;;;;;;;7.88;4.70;;;43.00;46.20;;;;;;5053616;28;20040;-66
2021/06/17 09:06:07;;;;;;;6.10;4.90;;;43.00;46.40;;;;;;5051684;28;20048;-67
2021/06/17 09:08:34;;;;;;;8.20;4.82;;;42.90;46.50;;;;;;5051774;28;20021;-65
2021/06/17 09:11:16;;;;;;;8.88;5.22;;;42.90;46.60;;;;;;5051640;28;20025;-65
2021/06/17 09:13:42;;;;;;;5.25;4.75;;;43.10;46.10;;;;;;5053098;28;20099;-65
2021/06/17 09:16:07;;;;;;;7.72;4.88;;;42.80;46.20;;;;;;5053546;28;20569;-66
2021/06/17 09:18:35;;;;;;;7.03;4.15;;;42.90;46.10;;;;;;5051922;28;20056;-67
2021/06/17 09:21:05;;;;;;;8.05;4.53;;;43.10;45.80;;;;;;5052898;28;20040;-66
2021/06/17 09:23:42;;;;;;;5.93;4.47;;;43.40;45.60;;;;;;5053181;28;20618;-65
2021/06/17 09:26:12;;;;;;;8.50;4.40;;;42.40;45.50;;;;;;5053441;28;20127;-65
2021/06/17 09:28:52;;;;;;;6.53;4.43;;;42.50;45.90;;;;;;5053352;28;20024;-67
2021/06/17 09:31:24;;;;;;;4.88;4.13;;;43.10;45.10;;;;;;5053449;28;20086;-66
2021/06/17 09:33:50;;;;;;;5.50;4.43;;;43.00;45.30;;;;;;5053060;28;20111;-66
2021/06/17 09:36:20;;;;;;;4.80;4.40;;;43.40;45.00;;;;;;5051523;28;20032;-65
2021/06/17 09:38:55;;;;;;;8.38;4.47;;;43.80;44.30;;;;;;5052896;28;20079;-66
2021/06/17 09:41:38;;;;;;;7.07;4.13;;;44.00;43.30;;;;;;5051632;28;20025;-66
2021/06/17 09:44:06;;;;;;;5.40;4.40;;;43.60;43.20;;;;;;5052863;28;20029;-66
2021/06/17 09:46:32;;;;;;;4.53;3.95;;;43.80;43.20;;;;;;5053078;28;20013;-66
2021/06/17 09:49:09;;;;;;;4.40;4.00;;;44.20;42.80;;;;;;5051996;28;20028;-67
2021/06/17 09:51:44;;;;;;;4.25;3.75;;;44.10;42.60;;;;;;5053252;28;20013;-66
2021/06/17 09:54:17;;;;;;;5.68;3.70;;;44.40;42.30;;;;;;5052842;28;20056;-67
2021/06/17 09:56:58;;;;;;;5.85;4.03;;;43.60;41.70;;;;;;5055216;28;20058;-67
2021/06/17 09:59:40;;;;;;;5.60;5.05;;;43.20;42.60;;;;;;5057222;28;20025;-67
2021/06/17 10:02:08;;;;;;;5.25;3.90;;;43.40;42.60;;;;;;5055831;28;20025;-66
2021/06/17 10:04:34;;;;;;;4.47;3.88;;;43.90;42.50;;;;;;5057524;28;20025;-66
2021/06/17 10:07:01;;;;;;;4.93;3.88;;;43.60;42.50;;;;;;5057771;28;20032;-66
2021/06/17 10:09:27;;;;;;;4.80;3.78;;;44.10;42.60;;;;;;5057974;28;20040;-65
2021/06/17 10:11:53;;;;;;;6.47;4.47;;;43.90;42.10;;;;;;5056953;28;20453;-66
2021/06/17 10:14:19;;;;;;;4.40;3.97;;;44.20;41.30;;;;;;5057059;28;20039;-66
2021/06/17 10:16:45;;;;;;;18.65;5.40;;;43.90;41.70;;;;;;5056465;28;20025;-66
2021/06/17 10:19:13;;;;;;;5.45;3.80;;;44.00;41.80;;;;;;5056871;28;20124;-66
2021/06/17 10:21:39;;;;;;;6.57;3.90;;;44.40;41.60;;;;;;5057188;28;20032;-66
2021/06/17 10:24:16;;;;;;;3.92;3.50;;;44.90;41.40;;;;;;5056775;28;20025;-67
2021/06/17 10:26:52;;;;;;;4.75;4.18;;;46.10;40.60;;;;;;5055624;28;20092;-67
2021/06/17 10:29:27;;;;;;;6.70;4.10;;;44.60;41.40;;;;;;5056929;28;20029;-66
2021/06/17 10:31:56;;;;;;;;;;;44.60;41.70;;;;;;5055383;28;20119;-67
2021/06/17 10:34:31;;;;;;;6.50;4.68;;;44.30;41.90;;;;;;5056537;28;19904;-67
2021/06/17 10:37:06;;;;;;;;;;;44.40;41.80;;;;;;5056550;28;20037;-66
2021/06/17 10:39:39;;;;;;;8.00;4.57;;;44.00;42.30;;;;;;5056436;28;19909;-66
2021/06/17 10:42:06;;;;;;;7.72;4.78;;;43.70;42.10;;;;;;5057337;28;20044;-66
2021/06/17 10:44:57;;;;;;;5.88;3.85;;;43.30;42.70;;;;;;5056237;28;20025;-66
2021/06/17 10:50:11;;;;;;;6.65;5.13;;;43.10;43.00;;;;;;5056867;28;20112;-66
2021/06/17 10:52:38;;;;;;;5.40;4.90;;;43.70;42.80;;;;;;5056308;28;20028;-65
2021/06/17 10:55:17;;;;;;;5.53;4.57;;;44.20;42.40;;;;;;5056323;28;20021;-68
2021/06/17 10:57:49;;;;;;;6.82;4.63;;;44.90;42.10;;;;;;5055021;28;20025;-65
2021/06/17 11:03:09;;;;;;;5.28;4.50;;;43.70;42.20;;;;;;5056247;28;20477;-65
2021/06/17 11:05:35;;;;;;;7.20;4.90;;;43.70;42.30;;;;;;5044489;28;20516;-65
2021/06/17 11:08:26;;;;;;;5.88;5.30;;;42.60;42.80;;;;;;5052964;28;20077;-65
2021/06/17 11:11:07;;;;;;;8.50;5.30;;;41.90;43.60;;;;;;5055405;28;20095;-65
2021/06/17 11:13:34;;;;;;;7.43;5.05;;;40.70;44.40;;;;;;5054571;28;20025;-65
2021/06/17 11:16:01;;;;;;;5.30;4.80;;;40.00;45.50;;;;;;5055008;28;20025;-64
2021/06/17 11:21:23;;;;;;;6.68;5.75;;;37.90;48.30;;;;;;5056595;28;20029;-65
2021/06/17 11:23:50;;;;;;;6.13;5.53;;;36.90;49.40;;;;;;5056194;28;20032;-65
2021/06/17 11:26:48;;;;;;;12.07;5.63;;;36.30;50.30;;;;;;5055744;28;20017;-65
2021/06/17 11:29:19;;;;;;;7.43;5.70;;;35.50;51.30;;;;;;5051789;28;20048;-65
2021/06/17 11:31:54;;;;;;;7.97;5.65;;;35.20;52.10;;;;;;5054496;28;20021;-65
2021/06/17 11:34:29;;;;;;;8.67;5.87;;;35.00;52.50;;;;;;5054151;28;20021;-65
2021/06/17 11:36:58;;;;;;;6.30;5.70;;;35.00;52.90;;;;;;5055130;28;20504;-65
2021/06/17 11:39:29;;;;;;;11.88;6.28;;;35.10;52.30;;;;;;5131122;22;20044;-63
2021/06/17 11:41:56;;;;;;;6.45;5.80;;;35.20;52.70;;;;;;5115816;28;20476;-66
2021/06/17 11:44:25;;;;;;;8.85;6.28;;;35.20;52.30;;;;;;5115081;28;20036;-65
2021/06/17 11:47:17;;;;;;;8.57;6.22;;;34.90;52.30;;;;;;5096625;28;20026;-66
2021/06/17 11:49:45;;;;;;;8.02;5.97;;;34.80;52.70;;;;;;5093785;28;20033;-68
2021/06/17 11:52:17;;;;;;;8.63;6.30;;;34.70;54.00;;;;;;5094594;28;20028;-69
2021/06/17 11:54:44;;;;;;;7.80;7.00;;;34.60;55.20;;;;;;5094751;28;20028;-68
2021/06/17 11:57:11;;;;;;;7.70;6.00;;;34.60;55.60;;;;;;5076159;28;20447;-67
2021/06/17 11:59:39;;;;;;;6.43;5.82;;;34.60;55.80;;;;;;5094621;28;20329;-66
2021/06/17 12:02:09;;;;;;;7.25;5.50;;;34.60;56.00;;;;;;5094721;28;20023;-67
2021/06/17 12:04:39;;;;;;;8.98;6.10;;;34.40;56.50;;;;;;5076072;28;20102;-66
2021/06/17 12:07:06;;;;;;;6.68;5.97;;;34.30;56.40;;;;;;5094723;28;20039;-68
2021/06/17 12:09:32;;;;;;;6.13;5.53;;;34.30;56.30;;;;;;5095611;28;20070;-68
2021/06/17 12:12:24;;;;;;;7.53;6.40;;;34.10;56.70;;;;;;5096793;28;20460;-69
2021/06/17 12:14:55;;;;;;;6.53;5.85;;;34.10;56.30;;;;;;5094456;28;20535;-68
2021/06/17 12:17:30;;;;;;;8.15;6.78;;;34.00;54.60;;;;;;5094492;28;20031;-67
2021/06/17 12:20:09;;;;;;;10.90;6.57;;;34.00;54.70;;;;;;5093779;28;20016;-67
2021/06/17 12:22:35;;;;;;;8.77;6.00;;;34.00;55.10;;;;;;5094276;28;20031;-68
2021/06/17 12:25:01;;;;;;;6.93;5.93;;;34.10;55.20;;;;;;5093834;28;20070;-67
2021/06/17 12:27:27;;;;;;;7.28;5.90;;;34.00;55.70;;;;;;5094321;28;20020;-68
2021/06/17 12:29:53;;;;;;;7.80;5.90;;;33.90;55.40;;;;;;5093815;28;20100;-67
2021/06/17 12:32:34;;;;;;;6.47;5.88;;;33.90;55.20;;;;;;5093958;28;20048;-67
2021/06/17 12:35:12;;;;;;;6.35;5.78;;;34.00;54.50;;;;;;5075797;28;20369;-68
2021/06/17 12:38:00;;;;;;;7.68;5.68;;;34.00;54.30;;;;;;5075439;28;20498;-68
2021/06/17 12:40:41;;;;;;;8.77;5.68;;;34.00;54.30;;;;;;5075633;28;20036;-68
2021/06/17 12:43:14;;;;;;;7.13;5.78;;;34.00;54.90;;;;;;5075697;28;20020;-67
2021/06/17 12:45:44;;;;;;;8.05;5.78;;;34.10;53.90;;;;;;5094223;28;20427;-69
2021/06/17 12:48:19;;;;;;;8.02;6.22;;;34.10;54.40;;;;;;5093954;28;20016;-69
2021/06/17 12:53:48;;;;;;;7.00;6.20;;;34.00;55.00;;;;;;5094305;28;20035;-67
2021/06/17 12:56:14;;;;;;;6.35;5.82;;;33.80;55.70;;;;;;5093366;28;20020;-67
2021/06/17 12:58:53;;;;;;;8.25;5.80;;;33.80;55.90;;;;;;5075698;28;20384;-67
2021/06/17 13:01:24;;;;;;;7.13;6.20;;;33.80;56.30;;;;;;5093667;28;20500;-66
2021/06/17 13:03:51;;;;;;;10.02;6.50;;;33.80;56.20;;;;;;5093707;28;20094;-67
2021/06/17 13:06:36;;;;;;;8.88;6.70;;;33.80;55.80;;;;;;5094187;28;20468;-67
2021/06/17 13:09:03;;;;;;;6.72;6.13;;;33.90;55.80;;;;;;5093247;28;20024;-68
2021/06/17 13:11:31;;;;;;;7.13;5.55;;;34.10;55.20;;;;;;5093108;28;20024;-67
2021/06/17 13:14:06;;;;;;;8.40;5.85;;;34.20;55.10;;;;;;5075050;28;20039;-70
2021/06/17 13:16:35;;;;;;;9.98;6.55;;;34.30;54.90;;;;;;5075015;28;20554;-68